Time;durP1;ratioP1;P1;durP2;ratioP2;P2;SDS_P1;SDS_P2;PMS_P1;PMS_P2;Temp;Humidity;BMP_temperature;BMP_pressure;BME280_temperature;BME280_humidity;BME280_pressure;Samples;Min_cycle;Max_cycle;Signal;HPM_P1;HPM_P2
2022/07/18 00:00:32;;;;;;;72.63;69.18;;;;;;;30.33;26.92;102299.16;5035092;28;20026;-74
2022/07/18 00:02:58;;;;;;;72.88;69.50;;;;;;;30.30;27.02;102295.06;5035036;28;20462;-75
2022/07/18 00:05:23;;;;;;;77.03;73.47;;;;;;;30.28;26.93;102293.78;5035174;28;20118;-74
2022/07/18 00:07:49;;;;;;;77.10;73.60;;;;;;;30.24;27.03;102295.56;5034716;28;20048;-76
2022/07/18 00:10:14;;;;;;;76.18;72.57;;;;;;;30.21;27.32;102291.50;5034556;28;20041;-76
2022/07/18 00:12:40;;;;;;;73.78;70.40;;;;;;;30.17;27.42;102280.22;5034846;28;20084;-75
2022/07/18 00:15:06;;;;;;;73.78;70.28;;;;;;;30.13;27.31;102279.25;5034871;28;20029;-76
2022/07/18 00:17:31;;;;;;;72.43;69.00;;;;;;;30.12;27.34;102279.63;5034640;28;20087;-76
2022/07/18 00:19:56;;;;;;;73.13;69.72;;;;;;;30.08;27.49;102281.44;5035247;28;20065;-75
2022/07/18 00:22:22;;;;;;;71.93;68.53;;;;;;;30.06;27.11;102280.94;5034887;28;20113;-75
2022/07/18 00:24:47;;;;;;;71.32;68.13;;;;;;;30.02;27.12;102272.47;5035113;28;20451;-76
2022/07/18 00:27:13;;;;;;;72.13;68.80;;;;;;;29.98;27.42;102277.88;5017696;28;20068;-75
2022/07/18 00:29:39;;;;;;;74.18;70.68;;;;;;;29.96;27.42;102273.81;5034495;28;20410;-74
2022/07/18 00:32:06;;;;;;;72.85;69.38;;;;;;;29.91;27.63;102272.06;5034508;28;20379;-76
2022/07/18 00:34:32;;;;;;;72.72;69.32;;;;;;;29.90;27.36;102266.81;5034996;28;20079;-75
2022/07/18 00:36:57;;;;;;;70.93;67.65;;;;;;;29.86;27.00;102260.28;5034843;28;20432;-75
2022/07/18 00:39:23;;;;;;;72.88;69.50;;;;;;;29.82;27.31;102253.78;5033982;28;20041;-74
2022/07/18 00:41:49;;;;;;;72.57;69.00;;;;;;;29.78;27.59;102253.63;5034044;28;20033;-73
2022/07/18 00:44:23;;;;;;;73.10;69.50;;;;;;;29.76;27.63;102253.13;5034140;28;20040;-74
2022/07/18 00:46:54;;;;;;;73.82;70.35;;;;;;;29.72;27.58;102252.19;5034557;28;20031;-74
2022/07/18 00:49:19;;;;;;;72.55;68.97;;;;;;;29.68;27.54;102257.59;5034695;28;20095;-75
2022/07/18 00:51:45;;;;;;;71.65;68.15;;;;;;;29.66;27.37;102254.38;5033840;28;20429;-76
2022/07/18 00:54:11;;;;;;;68.22;64.93;;;;;;;29.63;27.31;102251.38;5034023;28;20041;-75
2022/07/18 00:56:36;;;;;;;70.43;67.15;;;;;;;29.59;27.50;102245.69;5034185;28;20549;-75
2022/07/18 00:59:02;;;;;;;71.05;67.65;;;;;;;29.57;27.63;102247.19;5034133;28;20386;-75
2022/07/18 01:01:43;;;;;;;70.25;66.85;;;;;;;29.53;27.47;102238.66;5033946;28;20033;-74
2022/07/18 01:04:10;;;;;;;72.15;68.85;;;;;;;29.49;27.68;102234.94;5033968;28;20033;-75
2022/07/18 01:06:36;;;;;;;68.63;65.43;;;;;;;29.45;27.39;102234.78;5033759;28;20099;-74
2022/07/18 01:09:02;;;;;;;71.90;68.43;;;;;;;29.43;27.60;102233.47;5033917;28;20042;-75
2022/07/18 01:11:27;;;;;;;69.30;66.00;;;;;;;29.40;27.49;102234.97;5032459;28;20030;-74
2022/07/18 01:13:53;;;;;;;70.25;66.78;;;;;;;29.36;27.76;102242.38;5033632;28;20102;-75
2022/07/18 01:16:19;;;;;;;72.32;68.90;;;;;;;29.32;27.81;102233.84;5033539;28;20057;-75
2022/07/18 01:18:48;;;;;;;69.22;66.00;;;;;;;29.29;27.33;102228.97;5033716;28;20108;-75
2022/07/18 01:21:15;;;;;;;69.07;65.93;;;;;;;29.27;27.45;102233.25;5033614;28;20083;-75
2022/07/18 01:23:40;;;;;;;69.40;65.93;;;;;;;29.23;27.71;102230.31;5033823;28;20034;-75
2022/07/18 01:26:07;;;;;;;67.65;64.50;;;;;;;29.21;27.38;102231.81;5033345;28;20116;-74
2022/07/18 01:28:32;;;;;;;69.88;66.68;;;;;;;29.18;27.42;102230.50;5034273;28;20037;-75
2022/07/18 01:30:57;;;;;;;70.10;66.82;;;;;;;29.16;27.85;102235.59;5033903;28;20025;-78
2022/07/18 01:33:23;;;;;;;67.53;64.32;;;;;;;29.13;27.47;102244.56;5032613;28;20049;-74
2022/07/18 01:35:48;;;;;;;66.28;63.25;;;;;;;29.10;27.60;102242.47;5032670;28;20057;-76
2022/07/18 01:38:14;;;;;;;69.78;66.50;;;;;;;29.07;27.63;102243.13;5033328;28;20079;-76
2022/07/18 01:40:39;;;;;;;71.35;68.05;;;;;;;29.03;27.52;102242.97;5033353;28;20112;-75
2022/07/18 01:43:05;;;;;;;70.63;67.32;;;;;;;29.00;27.92;102240.03;5033010;28;20061;-75
2022/07/18 01:45:30;;;;;;;69.35;65.88;;;;;;;28.97;27.87;102238.72;5033034;28;20390;-75
2022/07/18 01:47:55;;;;;;;67.72;64.63;;;;;;;28.94;27.28;102236.59;5033470;28;20381;-74
2022/07/18 01:50:22;;;;;;;67.50;64.40;;;;;;;28.90;27.96;102238.41;5032984;28;20092;-73
2022/07/18 01:52:47;;;;;;;65.65;62.55;;;;;;;28.87;27.70;102237.09;5033384;28;20033;-74
2022/07/18 01:55:12;;;;;;;67.78;64.55;;;;;;;28.84;27.89;102223.88;5033374;28;20043;-74
2022/07/18 01:57:38;;;;;;;65.47;62.30;;;;;;;28.81;27.75;102218.97;5033272;28;20029;-74
2022/07/18 02:00:06;;;;;;;71.55;68.25;;;;;;;28.77;27.89;102219.97;5033230;28;20037;-74
2022/07/18 02:02:32;;;;;;;66.18;63.08;;;;;;;28.77;27.75;102218.00;5033030;28;20382;-76
2022/07/18 02:04:59;;;;;;;70.88;67.55;;;;;;;28.74;27.98;102206.75;5033274;28;20458;-75
2022/07/18 02:07:37;;;;;;;64.57;61.53;;;;;;;28.71;27.75;102211.00;5033188;28;20029;-74
2022/07/18 02:10:20;;;;;;;64.70;61.50;;;;;;;28.68;27.71;102212.47;5033434;28;20432;-77
2022/07/18 02:12:45;;;;;;;67.03;63.75;;;;;;;28.62;28.01;102211.00;5033705;28;20056;-75
2022/07/18 02:15:13;;;;;;;65.60;62.47;;;;;;;28.58;28.02;102209.25;5033785;28;20462;-74
2022/07/18 02:17:39;;;;;;;66.80;63.60;;;;;;;28.56;27.76;102208.75;5033645;28;20300;-74
2022/07/18 02:20:07;;;;;;;65.18;62.05;;;;;;;28.52;27.65;102216.91;5032753;28;20036;-75
2022/07/18 02:22:32;;;;;;;64.57;61.40;;;;;;;28.51;27.66;102214.47;5033549;28;20029;-75
2022/07/18 02:24:58;;;;;;;63.67;60.63;;;;;;;28.47;27.95;102212.34;5032734;28;20041;-75
2022/07/18 02:27:23;;;;;;;66.00;62.88;;;;;;;28.43;27.74;102194.66;5031938;28;20038;-74
2022/07/18 02:29:49;;;;;;;63.08;59.88;;;;;;;28.41;27.79;102205.28;5033035;28;20042;-75
2022/07/18 02:32:15;;;;;;;61.45;58.45;;;;;;;28.37;27.75;102201.53;5033014;28;20041;-75
2022/07/18 02:34:41;;;;;;;69.85;66.45;;;;;;;28.35;28.05;102203.00;5031678;28;20048;-75
2022/07/18 02:37:06;;;;;;;66.32;63.20;;;;;;;28.32;27.89;102207.25;5033313;28;20033;-74
2022/07/18 02:39:32;;;;;;;63.30;60.30;;;;;;;28.30;27.83;102205.94;5032478;28;20113;-75
2022/07/18 02:41:57;;;;;;;64.30;61.28;;;;;;;28.27;27.92;102199.09;5031388;28;20492;-74
2022/07/18 02:44:23;;;;;;;61.92;59.03;;;;;;;28.23;28.14;102198.94;5033016;28;20497;-75
2022/07/18 02:46:48;;;;;;;65.20;62.10;;;;;;;28.20;28.02;102196.81;5031941;28;20108;-74
2022/07/18 02:49:26;;;;;;;63.80;60.80;;;;;;;28.17;27.88;102194.72;5032869;28;20035;-76
2022/07/18 02:51:57;;;;;;;63.55;60.55;;;;;;;28.15;28.12;102196.16;5031505;28;20117;-75
2022/07/18 02:54:23;;;;;;;66.65;63.45;;;;;;;28.11;28.02;102192.41;5034700;28;20049;-76
2022/07/18 02:56:49;;;;;;;63.40;60.40;;;;;;;28.08;28.43;102190.31;5036970;28;20026;-74
2022/07/18 02:59:14;;;;;;;60.30;57.40;;;;;;;28.04;27.97;102185.38;5036511;28;20033;-75
2022/07/18 03:01:40;;;;;;;62.05;59.05;;;;;;;28.03;28.07;102188.50;5036107;28;20029;-75
2022/07/18 03:04:05;;;;;;;61.22;58.22;;;;;;;27.99;28.00;102177.22;5036101;28;20052;-74
2022/07/18 03:06:31;;;;;;;66.60;63.47;;;;;;;27.97;28.47;102173.13;5034800;28;20120;-74
2022/07/18 03:08:56;;;;;;;61.63;58.72;;;;;;;27.94;28.57;102176.56;5036410;28;20037;-75
2022/07/18 03:11:21;;;;;;;61.22;58.25;;;;;;;27.91;28.64;102172.47;5036435;28;20057;-74
2022/07/18 03:13:47;;;;;;;62.13;59.20;;;;;;;27.89;28.56;102165.63;5035967;28;20038;-75
2022/07/18 03:16:12;;;;;;;60.40;57.40;;;;;;;27.86;28.59;102167.09;5036544;28;20029;-75
2022/07/18 03:18:38;;;;;;;59.80;56.90;;;;;;;27.82;28.73;102166.09;5036445;28;20057;-75
2022/07/18 03:21:04;;;;;;;59.92;57.03;;;;;;;27.80;28.17;102162.81;5034784;28;20469;-75
2022/07/18 03:23:29;;;;;;;63.03;60.08;;;;;;;27.77;28.64;102155.97;5035195;28;20076;-74
2022/07/18 03:25:54;;;;;;;62.15;59.05;;;;;;;27.75;28.22;102158.25;5034468;28;20029;-75
2022/07/18 03:28:20;;;;;;;61.00;57.85;;;;;;;27.71;28.47;102151.69;5034294;28;20120;-75
2022/07/18 03:30:45;;;;;;;62.15;59.10;;;;;;;27.68;28.53;102149.56;5034406;28;20465;-76
2022/07/18 03:33:10;;;;;;;59.25;56.15;;;;;;;27.67;28.67;102147.09;5035906;28;20389;-75
2022/07/18 03:35:36;;;;;;;57.45;54.58;;;;;;;27.63;28.69;102153.31;5035345;28;20076;-74
2022/07/18 03:38:01;;;;;;;59.83;57.00;;;;;;;27.60;28.56;102153.16;5035473;28;20454;-75
2022/07/18 03:40:27;;;;;;;60.47;57.67;;;;;;;27.58;28.34;102153.47;5035458;28;20057;-76
2022/07/18 03:42:52;;;;;;;56.58;53.83;;;;;;;27.55;28.51;102150.53;5035723;28;20110;-75
2022/07/18 03:45:17;;;;;;;56.72;53.92;;;;;;;27.51;28.73;102150.34;5035351;28;20034;-75
2022/07/18 03:47:43;;;;;;;62.20;58.90;;;;;;;27.50;28.44;102150.69;5035030;28;20033;-74
2022/07/18 03:50:09;;;;;;;58.38;55.40;;;;;;;27.47;28.98;102154.09;5035060;28;20465;-73
2022/07/18 03:52:34;;;;;;;59.53;56.63;;;;;;;27.43;28.63;102153.94;5036376;28;20107;-73
2022/07/18 03:55:01;;;;;;;58.63;55.72;;;;;;;27.40;28.80;102154.59;5034544;28;20041;-75
2022/07/18 03:57:27;;;;;;;58.28;55.47;;;;;;;27.37;28.33;102146.94;5038033;28;20025;-74
2022/07/18 03:59:52;;;;;;;64.82;61.60;;;;;;;27.34;28.72;102142.00;5036721;28;20454;-75
2022/07/18 04:02:18;;;;;;;58.72;55.85;;;;;;;27.31;28.71;102146.25;5036844;28;20116;-74
2022/07/18 04:04:43;;;;;;;57.65;54.65;;;;;;;27.29;29.07;102151.31;5034753;28;20107;-74
2022/07/18 04:07:09;;;;;;;61.80;58.88;;;;;;;27.27;29.16;102144.47;5034982;28;20359;-75
2022/07/18 04:09:34;;;;;;;62.53;59.53;;;;;;;27.24;28.64;102156.19;5034812;28;20037;-75
2022/07/18 04:11:59;;;;;;;59.75;56.78;;;;;;;27.21;28.93;102152.09;5034771;28;20030;-75
2022/07/18 04:14:25;;;;;;;57.80;55.05;;;;;;;27.17;29.21;102143.56;5033688;28;20033;-74
2022/07/18 04:16:50;;;;;;;58.47;55.58;;;;;;;27.15;28.94;102143.06;5034575;28;20556;-74
2022/07/18 04:19:17;;;;;;;58.17;55.30;;;;;;;27.12;28.88;102129.84;5035193;28;20088;-76
2022/07/18 04:21:42;;;;;;;59.35;56.08;;;;;;;27.10;28.89;102123.00;5033433;28;20049;-75
2022/07/18 04:24:08;;;;;;;58.67;55.60;;;;;;;27.06;28.99;102125.56;5034063;28;20108;-74
2022/07/18 04:26:33;;;;;;;57.20;54.40;;;;;;;27.05;28.97;102125.91;5034900;28;20108;-75
2022/07/18 04:28:59;;;;;;;55.17;52.15;;;;;;;27.02;28.96;102124.59;5034542;28;20171;-75
2022/07/18 04:31:24;;;;;;;56.50;53.65;;;;;;;27.00;29.31;102126.06;5037319;28;20041;-76
2022/07/18 04:33:49;;;;;;;60.10;56.72;;;;;;;26.97;29.08;102124.75;5033748;28;20033;-75
2022/07/18 04:36:15;;;;;;;59.17;56.17;;;;;;;26.94;28.99;102117.91;5035178;28;20036;-76
2022/07/18 04:38:41;;;;;;;59.30;56.35;;;;;;;26.93;29.35;102120.97;5034256;28;20119;-75
2022/07/18 04:41:07;;;;;;;56.15;53.20;;;;;;;26.88;29.42;102116.38;5033999;28;20037;-74
2022/07/18 04:43:32;;;;;;;56.22;53.42;;;;;;;26.87;29.14;102113.94;5034488;28;20029;-75
2022/07/18 04:45:58;;;;;;;58.58;55.47;;;;;;;26.83;28.80;102119.31;5034217;28;20149;-76
2022/07/18 04:48:23;;;;;;;56.35;53.53;;;;;;;26.82;29.05;102123.22;5033615;28;20069;-76
2022/07/18 04:50:49;;;;;;;60.13;57.03;;;;;;;26.80;29.58;102127.47;5034454;28;20477;-77
2022/07/18 04:53:14;;;;;;;56.70;53.58;;;;;;;26.77;29.26;102126.94;5032878;28;20036;-75
2022/07/18 04:55:40;;;;;;;56.78;53.47;;;;;;;26.75;29.42;102126.44;5034090;28;20041;-72
2022/07/18 04:58:05;;;;;;;54.13;51.42;;;;;;;26.72;29.21;102123.50;5034912;28;20065;-75
2022/07/18 05:00:31;;;;;;;56.08;53.25;;;;;;;26.68;29.22;102117.78;5032827;28;20116;-76
2022/07/18 05:02:57;;;;;;;56.85;53.90;;;;;;;26.67;29.18;102121.69;5033426;28;20033;-75
2022/07/18 05:05:24;;;;;;;52.63;50.13;;;;;;;26.64;29.17;102127.88;5034159;28;20057;-74
2022/07/18 05:07:49;;;;;;;55.47;52.78;;;;;;;26.62;29.43;102130.16;5033876;28;20546;-76
2022/07/18 05:10:17;;;;;;;55.47;52.53;;;;;;;26.60;29.52;102140.72;5033957;28;20073;-75
2022/07/18 05:12:45;;;;;;;57.00;54.00;;;;;;;26.58;29.65;102140.22;5033858;28;20486;-75
2022/07/18 05:15:12;;;;;;;;;;;;;;;26.64;29.19;102138.16;5034120;28;20103;-76
2022/07/18 05:17:38;;;;;;;54.80;52.05;;;;;;;26.57;29.43;102124.75;5032675;28;19917;-75
2022/07/18 05:20:06;;;;;;;56.63;53.72;;;;;;;26.51;29.31;102123.19;5032849;28;20107;-76
2022/07/18 05:22:32;;;;;;;53.83;51.13;;;;;;;26.49;29.56;102119.94;5033602;28;20469;-75
2022/07/18 05:24:58;;;;;;;55.63;52.55;;;;;;;26.48;29.21;102123.84;5033618;28;20029;-74
2022/07/18 05:27:23;;;;;;;54.75;51.97;;;;;;;26.47;29.74;102128.56;5032441;28;20035;-74
2022/07/18 05:29:48;;;;;;;55.15;52.45;;;;;;;26.46;29.18;102123.31;5033471;28;20403;-74
2022/07/18 05:32:14;;;;;;;53.83;51.17;;;;;;;26.46;29.29;102134.41;5033800;28;20479;-74
2022/07/18 05:34:39;;;;;;;56.28;53.58;;;;;;;26.42;29.14;102128.69;5033232;28;20045;-75
2022/07/18 05:37:05;;;;;;;53.35;50.65;;;;;;;26.42;29.77;102141.75;5033471;28;20029;-76
2022/07/18 05:39:30;;;;;;;57.58;54.78;;;;;;;26.42;29.20;102138.97;5033150;28;20112;-78
2022/07/18 05:41:55;;;;;;;55.35;52.65;;;;;;;26.41;29.65;102140.09;5032190;28;20030;-75
2022/07/18 05:44:21;;;;;;;53.55;50.85;;;;;;;26.40;29.67;102138.47;5034051;28;20362;-75
2022/07/18 05:46:47;;;;;;;51.17;48.72;;;;;;;26.38;29.74;102135.19;5033252;28;20121;-74
2022/07/18 05:49:13;;;;;;;52.83;50.22;;;;;;;26.37;29.27;102139.91;5033333;28;20109;-74
2022/07/18 05:51:38;;;;;;;53.47;50.80;;;;;;;26.37;29.45;102131.59;5033230;28;20029;-74
2022/07/18 05:54:04;;;;;;;53.20;50.38;;;;;;;26.37;29.46;102141.88;5033535;28;20040;-75
2022/07/18 05:56:29;;;;;;;55.65;52.80;;;;;;;26.36;29.60;102138.28;5033334;28;20506;-75
2022/07/18 05:58:55;;;;;;;55.00;52.30;;;;;;;26.35;29.31;102133.88;5033094;28;20498;-75
2022/07/18 06:01:20;;;;;;;53.45;50.60;;;;;;;26.36;29.56;102137.44;5033077;28;20038;-74
2022/07/18 06:03:48;;;;;;;54.47;51.58;;;;;;;26.33;29.38;102134.19;5033205;28;20083;-76
2022/07/18 06:06:14;;;;;;;51.90;49.30;;;;;;;26.36;29.54;102137.44;5033835;28;20044;-77
2022/07/18 06:08:40;;;;;;;52.40;49.85;;;;;;;26.34;29.93;102135.00;5032617;28;20029;-75
2022/07/18 06:11:09;;;;;;;53.58;50.63;;;;;;;26.35;29.55;102142.19;5033383;28;20032;-76
2022/07/18 06:13:39;;;;;;;52.65;49.83;;;;;;;26.34;29.55;102135.81;5033166;28;20030;-76
2022/07/18 06:16:06;;;;;;;54.67;51.70;;;;;;;26.34;29.97;102133.06;5033483;28;20029;-76
2022/07/18 06:18:31;;;;;;;53.38;50.53;;;;;;;26.34;29.60;102130.28;5031527;28;20057;-77
2022/07/18 06:20:57;;;;;;;50.17;47.58;;;;;;;26.34;29.74;102127.50;5033468;28;20025;-75
2022/07/18 06:23:22;;;;;;;50.95;48.35;;;;;;;26.37;30.13;102125.25;5031866;28;20040;-76
2022/07/18 06:25:48;;;;;;;51.55;48.95;;;;;;;26.38;30.16;102126.88;5033621;28;20355;-76
2022/07/18 06:28:13;;;;;;;52.05;49.30;;;;;;;26.38;29.74;102126.88;5033333;28;20053;-75
2022/07/18 06:30:38;;;;;;;51.90;48.97;;;;;;;26.38;30.17;102127.69;5037351;28;20386;-77
2022/07/18 06:33:05;;;;;;;54.17;51.40;;;;;;;26.40;29.72;102127.38;5037300;28;20036;-75
2022/07/18 06:35:32;;;;;;;51.60;49.00;;;;;;;26.41;29.86;102117.91;5036759;28;20128;-76
2022/07/18 06:37:57;;;;;;;53.45;50.67;;;;;;;26.41;30.21;102112.38;5035656;28;20040;-76
2022/07/18 06:40:25;;;;;;;51.53;48.83;;;;;;;26.43;30.25;102116.47;5036639;28;20033;-77
2022/07/18 06:42:52;;;;;;;55.93;52.80;;;;;;;26.46;30.04;102106.69;5036047;28;20463;-73
2022/07/18 06:45:17;;;;;;;51.47;48.88;;;;;;;26.47;30.14;102105.59;5036267;28;20033;-75
2022/07/18 06:47:43;;;;;;;53.60;50.70;;;;;;;26.49;30.16;102101.38;5036032;28;20048;-76
2022/07/18 06:50:13;;;;;;;54.45;51.65;;;;;;;26.50;30.06;102102.97;5036283;28;20029;-77
2022/07/18 06:52:40;;;;;;;54.22;51.53;;;;;;;26.53;30.07;102099.63;5036729;28;20033;-75
2022/07/18 06:55:06;;;;;;;54.05;51.22;;;;;;;26.57;30.21;102101.75;5036628;28;20079;-77
2022/07/18 06:57:32;;;;;;;54.03;51.33;;;;;;;26.59;30.36;102096.72;5036343;28;20029;-75
2022/07/18 06:59:57;;;;;;;57.20;54.08;;;;;;;26.62;30.05;102098.84;5036273;28;20042;-75
2022/07/18 07:02:22;;;;;;;55.03;52.15;;;;;;;26.63;30.20;102095.75;5036692;28;20363;-74
2022/07/18 07:04:48;;;;;;;54.58;51.60;;;;;;;26.65;30.57;102095.44;5035510;28;20444;-77
2022/07/18 07:07:13;;;;;;;53.97;51.30;;;;;;;26.67;30.63;102098.72;5036440;28;20064;-75
2022/07/18 07:09:38;;;;;;;53.75;50.85;;;;;;;26.68;30.76;102101.13;5036628;28;20453;-75
2022/07/18 07:12:04;;;;;;;56.00;53.13;;;;;;;26.71;30.83;102097.75;5035395;28;20033;-76
2022/07/18 07:14:29;;;;;;;53.40;50.67;;;;;;;26.75;30.78;102114.56;5035816;28;20048;-76
2022/07/18 07:16:55;;;;;;;57.50;54.17;;;;;;;26.77;30.91;102113.09;5035310;28;20095;-75
2022/07/18 07:19:20;;;;;;;56.33;53.42;;;;;;;26.81;30.59;102109.66;5035933;28;20359;-77
2022/07/18 07:21:46;;;;;;;54.33;51.47;;;;;;;26.86;30.57;102112.31;5035268;28;20037;-73
2022/07/18 07:24:11;;;;;;;56.65;53.67;;;;;;;26.89;30.97;102111.69;5034857;28;20120;-76
2022/07/18 07:26:37;;;;;;;55.28;52.47;;;;;;;26.92;31.15;102114.63;5035381;28;20148;-76
2022/07/18 07:29:02;;;;;;;56.70;53.80;;;;;;;26.96;31.15;102112.84;5035510;28;20041;-77
2022/07/18 07:31:28;;;;;;;56.33;53.55;;;;;;;27.00;30.79;102113.00;5035916;28;20053;-76
2022/07/18 07:33:53;;;;;;;56.30;53.53;;;;;;;27.04;30.71;102116.78;5034274;28;20029;-75
2022/07/18 07:36:19;;;;;;;56.55;53.65;;;;;;;27.08;30.81;102117.75;5035128;28;20029;-75
2022/07/18 07:38:44;;;;;;;59.75;56.72;;;;;;;27.12;30.80;102104.91;5035553;28;20053;-75
2022/07/18 07:41:13;;;;;;;55.33;52.58;;;;;;;27.15;31.00;102104.25;5034933;28;20109;-73
2022/07/18 07:43:38;;;;;;;;;;;;;;;27.28;30.90;102102.50;5036197;28;20419;-76
2022/07/18 07:46:03;;;;;;;55.00;52.20;;;;;;;27.26;30.97;102095.66;5035794;28;19999;-76
2022/07/18 07:48:29;;;;;;;60.13;56.95;;;;;;;27.26;30.74;102096.44;5034324;28;20036;-75
2022/07/18 07:50:54;;;;;;;58.33;55.40;;;;;;;27.31;30.90;102101.84;5043484;28;20029;-75
2022/07/18 07:53:20;;;;;;;56.53;53.55;;;;;;;27.35;31.22;102088.97;5046149;28;20116;-76
2022/07/18 07:55:45;;;;;;;55.85;52.95;;;;;;;27.39;31.04;102089.13;5048048;28;20056;-77
2022/07/18 07:58:11;;;;;;;54.97;52.33;;;;;;;27.45;30.88;102082.28;5048771;28;20033;-73
2022/07/18 08:00:37;;;;;;;56.72;53.83;;;;;;;27.49;31.18;102077.72;5050462;28;20065;-75
2022/07/18 08:03:07;;;;;;;58.30;55.47;;;;;;;27.54;31.42;102083.13;5050216;28;20053;-76
2022/07/18 08:05:37;;;;;;;58.28;55.05;;;;;;;27.58;31.18;102078.53;5047671;28;20101;-76
2022/07/18 08:08:03;;;;;;;59.75;56.90;;;;;;;27.65;31.44;102074.47;5045199;28;20040;-76
2022/07/18 08:10:29;;;;;;;57.78;54.83;;;;;;;27.71;31.44;102075.94;5037637;28;20146;-76
2022/07/18 08:12:55;;;;;;;61.40;58.20;;;;;;;27.77;30.94;102069.03;5036602;28;20033;-76
2022/07/18 08:15:21;;;;;;;56.70;54.00;;;;;;;27.84;31.28;102072.19;5036150;28;20067;-78
2022/07/18 08:17:46;;;;;;;57.45;54.63;;;;;;;27.90;31.42;102068.09;5042412;28;20049;-75
2022/07/18 08:20:12;;;;;;;62.67;59.65;;;;;;;27.95;31.45;102072.69;5047429;28;20025;-75
2022/07/18 08:22:58;;;;;;;60.50;57.50;;;;;;;28.01;31.10;102069.38;5049849;28;20035;-77
2022/07/18 08:25:25;;;;;;;60.00;56.83;;;;;;;28.09;31.35;102069.69;5043744;28;20063;-72
2022/07/18 08:27:51;;;;;;;63.60;60.42;;;;;;;28.13;31.61;102068.72;5042172;28;20110;-75
2022/07/18 08:30:17;;;;;;;64.30;61.20;;;;;;;28.19;31.61;102066.56;5036875;28;20036;-78
2022/07/18 08:32:43;;;;;;;60.83;57.85;;;;;;;28.26;31.30;102064.91;5035071;28;20053;-74
2022/07/18 08:35:08;;;;;;;62.42;59.42;;;;;;;28.33;31.42;102067.19;5034539;28;20038;-76
2022/07/18 08:37:34;;;;;;;61.28;58.28;;;;;;;28.41;31.36;102059.97;5033584;28;20091;-74
2022/07/18 08:39:59;;;;;;;59.85;56.97;;;;;;;28.47;31.38;102053.91;5034991;28;20040;-78
2022/07/18 08:42:26;;;;;;;61.58;58.58;;;;;;;28.54;31.49;102063.72;5033505;28;20040;-76
2022/07/18 08:44:56;;;;;;;62.67;59.35;;;;;;;28.61;31.63;102069.56;5034764;28;20057;-74
2022/07/18 08:47:23;;;;;;;63.40;60.30;;;;;;;28.69;31.26;102063.97;5034211;28;20041;-76
2022/07/18 08:49:49;;;;;;;66.40;63.30;;;;;;;28.77;31.16;102069.81;5034196;28;20082;-76
2022/07/18 08:52:15;;;;;;;65.15;62.05;;;;;;;28.85;31.31;102075.34;5033789;28;20143;-76
2022/07/18 08:54:41;;;;;;;67.35;64.20;;;;;;;28.91;31.12;102074.00;5034053;28;20038;-73
2022/07/18 08:57:07;;;;;;;64.95;61.85;;;;;;;29.00;31.46;102075.91;5033658;28;20377;-75
2022/07/18 08:59:33;;;;;;;63.63;60.63;;;;;;;29.08;31.53;102075.91;5033815;28;20076;-75
2022/07/18 09:01:58;;;;;;;66.20;63.20;;;;;;;29.17;31.45;102072.22;5034151;28;20037;-76
2022/07/18 09:04:37;;;;;;;66.20;63.03;;;;;;;29.25;31.58;102065.78;5033945;28;20449;-76
2022/07/18 09:07:04;;;;;;;63.30;60.35;;;;;;;29.32;31.64;102066.88;5034380;28;20037;-76
2022/07/18 09:09:30;;;;;;;70.43;67.13;;;;;;;29.40;31.56;102069.94;5033613;28;20053;-78
2022/07/18 09:11:59;;;;;;;70.38;66.97;;;;;;;29.48;31.54;102069.03;5033190;28;20382;-78
2022/07/18 09:14:39;;;;;;;70.18;66.95;;;;;;;29.56;31.55;102068.19;5034252;28;20087;-79
2022/07/18 09:17:06;;;;;;;72.15;68.72;;;;;;;29.66;31.46;102072.53;5033351;28;20535;-77
2022/07/18 09:19:32;;;;;;;68.72;65.32;;;;;;;29.74;31.51;102077.22;5034163;28;20026;-78
2022/07/18 09:22:18;;;;;;;68.07;64.85;;;;;;;29.85;31.42;102074.81;5032202;28;20025;-77
2022/07/18 09:25:16;;;;;;;74.60;71.20;;;;;;;29.95;31.64;102069.63;5032046;28;20049;-77
2022/07/18 09:27:52;;;;;;;69.20;65.65;;;;;;;30.05;31.38;102073.94;5033693;28;20470;-75
2022/07/18 09:30:22;;;;;;;69.88;66.68;;;;;;;30.11;31.49;102074.53;5032059;28;20040;-76
2022/07/18 09:33:03;;;;;;;71.72;68.22;;;;;;;30.22;31.41;102070.16;5033201;28;20034;-76
2022/07/18 09:35:58;;;;;;;73.60;70.10;;;;;;;30.28;31.20;102074.38;5032841;28;20036;-76
2022/07/18 09:38:30;;;;;;;73.63;70.18;;;;;;;30.40;31.37;102074.41;5028325;28;20043;-75
2022/07/18 09:40:57;;;;;;;74.13;70.38;;;;;;;30.48;31.61;102072.66;5033234;28;20033;-76
2022/07/18 09:43:24;;;;;;;73.90;70.40;;;;;;;30.56;31.25;102073.72;5033105;28;20037;-76
2022/07/18 09:45:53;;;;;;;74.55;71.13;;;;;;;30.65;31.73;102065.25;5033549;28;20060;-77
2022/07/18 09:48:26;;;;;;;76.22;72.75;;;;;;;30.75;31.41;102071.19;5031901;28;20073;-78
2022/07/18 09:51:03;;;;;;;75.10;71.10;;;;;;;30.86;31.38;102070.75;5033290;28;20029;-76
2022/07/18 09:53:33;;;;;;;74.15;70.78;;;;;;;30.93;31.35;102060.63;5033614;28;20455;-74
2022/07/18 09:56:02;;;;;;;78.47;74.78;;;;;;;31.02;31.19;102074.44;5033133;28;20040;-75
2022/07/18 09:58:31;;;;;;;79.68;75.97;;;;;;;31.10;31.34;102064.31;5033053;28;20084;-75
2022/07/18 10:00:59;;;;;;;73.93;70.53;;;;;;;31.19;31.17;102060.22;5032846;28;20025;-76
2022/07/18 10:03:25;;;;;;;;;;;;;;;31.44;31.10;102068.56;5035309;28;20088;-77
2022/07/18 10:05:53;;;;;;;77.22;73.47;;;;;;;31.41;31.09;102067.28;5037263;28;19909;-71
2022/07/18 10:08:21;;;;;;;73.85;70.43;;;;;;;31.47;30.92;102067.84;5036911;28;20029;-74
2022/07/18 10:10:47;;;;;;;;;;;;;;;31.68;31.03;102067.69;5039827;28;20037;-74
2022/07/18 10:13:14;;;;;;;75.85;72.35;;;;;;;31.66;30.92;102068.03;5037024;28;19909;-75
2022/07/18 10:15:41;;;;;;;81.53;77.82;;;;;;;31.71;30.91;102064.16;5036838;28;20033;-76
2022/07/18 10:18:13;;;;;;;78.23;74.73;;;;;;;31.80;30.82;102061.19;5036946;28;20374;-76
2022/07/18 10:20:54;;;;;;;80.28;76.63;;;;;;;31.89;31.03;102064.66;5036534;28;20037;-74
2022/07/18 10:23:27;;;;;;;80.93;77.32;;;;;;;31.97;30.91;102058.13;5035674;28;20025;-76
2022/07/18 10:26:16;;;;;;;79.82;76.13;;;;;;;32.09;30.78;102054.44;5036647;28;20057;-75
2022/07/18 10:29:00;;;;;;;81.10;77.50;;;;;;;32.17;30.88;102055.44;5036736;28;20025;-76
2022/07/18 10:32:01;;;;;;;83.60;79.90;;;;;;;32.28;30.84;102054.56;5036841;28;20037;-77
2022/07/18 10:34:32;;;;;;;81.13;77.40;;;;;;;32.34;30.73;102057.91;5036736;28;20030;-74
2022/07/18 10:37:01;;;;;;;81.28;77.28;;;;;;;32.42;30.36;102054.09;5037104;28;20381;-76
2022/07/18 10:39:33;;;;;;;85.18;81.28;;;;;;;32.52;30.39;102059.19;5036928;28;20022;-74
2022/07/18 10:41:58;;;;;;;80.90;77.22;;;;;;;32.61;30.41;102058.16;5035661;28;20029;-74
2022/07/18 10:44:28;;;;;;;85.93;82.03;;;;;;;32.70;30.40;102058.81;5036351;28;20025;-75
2022/07/18 10:47:03;;;;;;;83.78;79.97;;;;;;;32.79;30.65;102051.03;5036587;28;20025;-75
2022/07/18 10:49:49;;;;;;;88.38;84.38;;;;;;;32.88;30.20;102046.03;5034822;28;20091;-75
2022/07/18 10:52:29;;;;;;;86.45;82.55;;;;;;;32.95;30.14;102051.00;5036073;28;20064;-74
2022/07/18 10:57:37;;;;;;;84.97;80.97;;;;;;;33.12;29.80;102044.22;5035587;28;20041;-73
2022/07/18 11:00:14;;;;;;;88.60;84.55;;;;;;;33.20;29.75;102048.78;5035671;28;20033;-73
2022/07/18 11:02:44;;;;;;;86.13;82.27;;;;;;;33.29;29.72;102051.34;5035532;28;20030;-73
2022/07/18 11:05:25;;;;;;;87.90;83.80;;;;;;;33.37;29.62;102050.34;5036741;28;20367;-73
2022/07/18 11:08:02;;;;;;;86.40;82.30;;;;;;;33.45;29.54;102049.31;5034556;28;20481;-74
2022/07/18 11:10:54;;;;;;;87.85;83.88;;;;;;;33.55;29.63;102045.16;5035676;28;20087;-74
2022/07/18 11:13:28;;;;;;;89.75;85.55;;;;;;;33.60;29.54;102042.03;5036044;28;20038;-74